Light Rain Showers Current Weather (METAR) For Innsbruck - Kranebitten Airport

All times on the weather descriptions are local

Observed at 14:50 - (20 mins ago)

Light Rain Showers

21°C

Light Rain Showers , Rain Showers
Clouds: Few Clouds at 5,000ft, Scattered Clouds at 8,000ft, Broken Clouds at 10,000ft
Wind: 220° at 06 knots, varying from 170° to 270
Visibility: Greater than 10km
QNH: 1012
Dew Point: 14°C
Runway in Use: Likely Runway 26

Sunrise Today: 05:44
Sunset Today: 20:57

Forecast Weather (TAF) For Innsbruck - Kranebitten Airport

Issued at 02:00 - (4 days 10 hrs ago)


Runway in Use: Unable to determine, wind is clam

Forecast valid until 02:00 on Thursday

METAR/TAF RAW METAR / TAF

LOWI 261250Z 22006KT 170V270 9999 -SHRA FEW050CB SCT080 BKN100 21/14 Q1012 TEMPO SHRA

Weather Widget

Put weather from any of our airports on your website with our weather widget.

Find Another Search

Airport Search


Please Wait Please Wait - Loading
Close
Close

Login

Username:

Password:

Remember Me:

Remember me on this computer

Forgotten your password? Get a reset password sent to your registered e-mail address

Close

User Private Message

Subject:

Message: